createdAt,value
2018-11-01T00:01:16.072Z,7.40
2018-11-01T00:03:44.601Z,7.40
2018-11-01T00:06:13.098Z,7.40
2018-11-01T00:08:42.388Z,7.40
2018-11-01T00:11:11.258Z,7.40
2018-11-01T00:13:39.774Z,7.40
2018-11-01T00:16:08.630Z,7.40
2018-11-01T00:18:37.176Z,7.40
2018-11-01T00:21:06.852Z,7.40
2018-11-01T00:23:35.868Z,7.40
2018-11-01T00:26:04.466Z,7.40
2018-11-01T00:28:33.284Z,7.30
2018-11-01T00:31:02.006Z,7.30
2018-11-01T00:33:30.560Z,7.20
2018-11-01T00:35:59.217Z,7.20
2018-11-01T00:38:27.837Z,7.20
2018-11-01T00:40:57.021Z,7.20
2018-11-01T00:43:26.195Z,7.10
2018-11-01T00:45:54.704Z,7.10
2018-11-01T00:48:24.991Z,7.10
2018-11-01T00:50:53.821Z,7.10
2018-11-01T00:53:22.682Z,7.10
2018-11-01T00:55:51.513Z,7.00
2018-11-01T00:58:20.378Z,7.00
2018-11-01T01:00:49.220Z,7.00
2018-11-01T01:03:18.069Z,7.00
2018-11-01T01:05:46.907Z,7.00
2018-11-01T01:08:15.731Z,7.00
2018-11-01T01:10:44.932Z,7.00
2018-11-01T01:13:13.417Z,7.00
2018-11-01T01:15:42.465Z,7.00
2018-11-01T01:18:10.977Z,7.00
2018-11-01T01:20:39.838Z,6.90
2018-11-01T01:23:08.697Z,6.90
2018-11-01T01:25:37.528Z,6.90
2018-11-01T01:28:06.699Z,6.80
2018-11-01T01:30:35.218Z,6.90
2018-11-01T01:33:04.049Z,6.70
2018-11-01T01:35:32.537Z,6.60
2018-11-01T01:38:01.009Z,6.50
2018-11-01T01:40:29.853Z,6.50
2018-11-01T01:42:58.345Z,6.50
2018-11-01T01:45:27.148Z,6.50
2018-11-01T01:47:55.980Z,6.50
2018-11-01T01:50:24.835Z,6.60
2018-11-01T01:52:53.490Z,6.60
2018-11-01T01:55:22.308Z,6.50
2018-11-01T01:57:50.827Z,6.50
2018-11-01T02:00:20.930Z,6.50
2018-11-01T02:02:50.841Z,6.50
2018-11-01T02:05:20.678Z,6.50
2018-11-01T02:07:49.228Z,6.50
2018-11-01T02:10:18.833Z,6.50
2018-11-01T02:12:47.389Z,6.40
2018-11-01T02:15:17.245Z,6.40
2018-11-01T02:17:45.789Z,6.40
2018-11-01T02:20:15.975Z,6.30
2018-11-01T02:22:44.945Z,6.30
2018-11-01T02:25:13.528Z,6.20
2018-11-01T02:27:47.407Z,6.20
2018-11-01T02:30:17.493Z,6.20
2018-11-01T02:32:46.612Z,6.20
2018-11-01T02:35:16.687Z,6.20
2018-11-01T02:37:46.214Z,6.20
2018-11-01T02:40:16.168Z,6.20
2018-11-01T02:42:45.164Z,6.20
2018-11-01T02:45:14.486Z,6.20
2018-11-01T02:47:43.115Z,6.20
2018-11-01T02:50:12.880Z,6.20
2018-11-01T02:52:42.270Z,6.20
2018-11-01T02:55:11.326Z,6.20
2018-11-01T02:57:40.505Z,6.20
2018-11-01T03:00:12.429Z,6.20
2018-11-01T03:02:41.617Z,6.20
2018-11-01T03:05:10.952Z,6.30
2018-11-01T03:07:39.833Z,6.20
2018-11-01T03:10:09.743Z,6.20
2018-11-01T03:12:39.281Z,6.20
2018-11-01T03:15:08.917Z,6.20
2018-11-01T03:17:37.843Z,6.20
2018-11-01T03:20:08.518Z,6.20
2018-11-01T03:22:37.371Z,6.20
2018-11-01T03:25:06.637Z,6.20
2018-11-01T03:27:35.473Z,6.20
2018-11-01T03:30:04.369Z,6.20
2018-11-01T03:32:32.876Z,6.20
2018-11-01T03:35:01.393Z,6.10
2018-11-01T03:37:30.237Z,6.10
2018-11-01T03:39:59.067Z,6.10
2018-11-01T03:42:27.585Z,6.10
2018-11-01T03:44:56.082Z,6.00
2018-11-01T03:47:25.266Z,6.00
2018-11-01T03:49:54.114Z,5.90
2018-11-01T03:52:23.020Z,5.90
2018-11-01T03:54:51.657Z,5.80
2018-11-01T03:57:20.501Z,5.90
2018-11-01T03:59:49.339Z,5.80
2018-11-01T04:02:18.189Z,5.80
2018-11-01T04:04:46.717Z,5.70
2018-11-01T04:07:15.988Z,5.70
2018-11-01T04:09:44.513Z,5.70
2018-11-01T04:12:13.381Z,5.70
2018-11-01T04:14:41.874Z,5.80
2018-11-01T04:17:10.453Z,5.80
2018-11-01T04:19:39.081Z,5.80
2018-11-01T04:22:07.968Z,5.80
2018-11-01T04:24:37.445Z,5.80
2018-11-01T04:27:06.253Z,5.80
2018-11-01T04:29:36.136Z,5.80
2018-11-01T04:36:52.745Z,5.80
2018-11-01T04:39:21.907Z,5.70
2018-11-01T04:41:50.599Z,5.60
2018-11-01T04:44:19.444Z,5.60
2018-11-01T04:46:47.975Z,5.70
2018-11-01T04:49:16.517Z,5.70
2018-11-01T04:51:45.025Z,5.70
2018-11-01T04:54:13.999Z,5.70
2018-11-01T04:56:42.564Z,5.80
2018-11-01T04:59:11.735Z,5.70
2018-11-01T05:01:40.583Z,5.70
2018-11-01T05:05:33.655Z,5.70
2018-11-01T05:08:02.553Z,5.70
2018-11-01T05:10:31.084Z,5.80
2018-11-01T05:12:59.609Z,5.80
2018-11-01T05:15:28.849Z,5.80
2018-11-01T05:17:57.683Z,5.80
2018-11-01T05:20:26.530Z,5.70
2018-11-01T05:22:55.029Z,5.70
2018-11-01T05:25:24.189Z,5.80
2018-11-01T05:27:52.713Z,5.80
2018-11-01T05:30:21.214Z,5.70
2018-11-01T05:32:50.049Z,5.70
2018-11-01T05:35:18.554Z,5.70
2018-11-01T05:37:47.051Z,5.70
2018-11-01T05:40:16.445Z,5.70
2018-11-01T05:42:45.335Z,5.60
2018-11-01T05:45:14.629Z,5.70
2018-11-01T05:47:43.846Z,5.70
2018-11-01T05:50:12.381Z,5.70
2018-11-01T05:52:40.903Z,5.70
2018-11-01T05:55:10.062Z,5.60
2018-11-01T05:57:38.649Z,5.50
2018-11-01T06:00:11.627Z,5.50
2018-11-01T06:02:41.750Z,5.50
2018-11-01T06:05:10.441Z,5.60
2018-11-01T06:07:47.329Z,5.70
2018-11-01T06:10:16.197Z,5.70
2018-11-01T06:12:45.024Z,5.70
2018-11-01T06:15:13.569Z,5.80
2018-11-01T06:17:42.737Z,5.80
2018-11-01T06:20:11.965Z,5.70
2018-11-01T06:22:40.930Z,5.80
2018-11-01T06:25:10.393Z,5.80
2018-11-01T06:27:39.298Z,5.80
2018-11-01T06:30:14.074Z,5.80
2018-11-01T06:32:44.639Z,5.90
2018-11-01T06:35:18.633Z,5.90
2018-11-01T06:37:47.196Z,5.90
2018-11-01T06:43:15.145Z,5.90
2018-11-01T06:45:43.984Z,5.90
2018-11-01T06:48:12.625Z,6.00
2018-11-01T06:50:41.572Z,6.10
2018-11-01T06:53:11.137Z,6.00
2018-11-01T06:55:39.633Z,6.10
2018-11-01T06:58:08.529Z,6.20
2018-11-01T07:00:37.210Z,6.20
2018-11-01T07:03:06.066Z,6.30
2018-11-01T07:05:35.393Z,6.40
2018-11-01T07:08:04.171Z,6.50
2018-11-01T07:10:32.910Z,6.60
2018-11-01T07:13:01.420Z,6.70
2018-11-01T07:15:31.365Z,6.90
2018-11-01T07:17:59.891Z,7.10
2018-11-01T07:20:28.834Z,7.30
2018-11-01T07:22:57.326Z,7.50
2018-11-01T07:25:25.918Z,7.70
2018-11-01T07:27:54.838Z,7.90
2018-11-01T07:30:23.362Z,8.10
2018-11-01T07:32:52.337Z,8.40
2018-11-01T07:35:21.201Z,8.60
2018-11-01T07:37:50.388Z,8.70
2018-11-01T07:40:19.616Z,8.90
2018-11-01T07:42:48.137Z,9.10
2018-11-01T07:45:17.002Z,9.30
2018-11-01T07:47:45.982Z,9.40
2018-11-01T07:50:15.196Z,9.50
2018-11-01T07:52:43.783Z,9.70
2018-11-01T07:55:14.108Z,10.00
2018-11-01T07:57:43.424Z,10.20
2018-11-01T08:00:14.345Z,10.50
2018-11-01T08:02:43.959Z,10.80
2018-11-01T08:05:13.138Z,11.10
2018-11-01T08:07:42.464Z,11.40
2018-11-01T08:10:14.733Z,11.70
2018-11-01T08:12:44.752Z,12.00
2018-11-01T08:15:15.064Z,12.30
2018-11-01T08:17:43.900Z,12.50
2018-11-01T08:20:13.771Z,12.80
2018-11-01T08:22:42.546Z,13.00
2018-11-01T08:25:12.147Z,13.20
2018-11-01T08:27:41.678Z,13.30
2018-11-01T08:30:13.128Z,13.50
2018-11-01T08:32:42.335Z,13.70
2018-11-01T08:35:11.572Z,13.70
2018-11-01T08:37:41.757Z,13.70
2018-11-01T08:40:10.846Z,13.70
2018-11-01T08:42:40.537Z,13.70
2018-11-01T08:45:11.696Z,13.80
2018-11-01T08:47:41.017Z,13.80
2018-11-01T08:50:11.102Z,13.90
2018-11-01T08:52:40.956Z,13.90
2018-11-01T08:55:10.929Z,13.90
2018-11-01T08:57:40.775Z,13.80
2018-11-01T09:00:10.160Z,13.80
2018-11-01T09:02:38.773Z,13.70
2018-11-01T09:05:07.960Z,13.70
2018-11-01T09:07:37.060Z,13.80
2018-11-01T09:10:07.893Z,13.80
2018-11-01T09:12:36.774Z,14.00
2018-11-01T09:15:06.887Z,14.10
2018-11-01T09:17:35.769Z,14.10
2018-11-01T09:20:05.213Z,14.30
2018-11-01T09:22:33.756Z,14.40
2018-11-01T09:25:02.574Z,14.50
2018-11-01T09:27:32.001Z,14.70
2018-11-01T09:30:00.883Z,14.80
2018-11-01T09:32:29.775Z,15.00
2018-11-01T09:34:58.610Z,15.10
2018-11-01T09:37:27.429Z,15.30
2018-11-01T09:39:55.937Z,15.30
2018-11-01T09:42:24.472Z,15.20
2018-11-01T09:44:53.350Z,15.20
2018-11-01T09:47:22.729Z,15.30
2018-11-01T09:49:51.109Z,15.50
2018-11-01T09:52:19.605Z,15.50
2018-11-01T09:54:48.413Z,15.60
2018-11-01T09:57:16.925Z,15.70
2018-11-01T09:59:45.401Z,15.70
2018-11-01T10:02:14.614Z,15.70
2018-11-01T10:04:43.466Z,15.70
2018-11-01T10:07:12.736Z,15.70
2018-11-01T10:09:41.569Z,15.70
2018-11-01T10:12:10.763Z,15.70
2018-11-01T10:14:39.953Z,15.70
2018-11-01T10:17:09.106Z,15.70
2018-11-01T10:19:37.466Z,15.60
2018-11-01T10:22:06.506Z,15.60
2018-11-01T10:24:35.030Z,15.50
2018-11-01T10:27:03.919Z,15.30
2018-11-01T10:29:32.421Z,15.20
2018-11-01T10:32:00.938Z,15.20
2018-11-01T10:34:29.446Z,15.10
2018-11-01T10:36:57.965Z,15.10
2018-11-01T10:39:26.526Z,15.10
2018-11-01T10:41:55.074Z,15.10
2018-11-01T10:44:24.030Z,15.10
2018-11-01T10:46:52.532Z,15.00
2018-11-01T10:49:21.417Z,15.00
2018-11-01T10:51:50.330Z,15.00
2018-11-01T10:54:18.933Z,15.10
2018-11-01T10:56:47.983Z,15.10
2018-11-01T10:59:17.262Z,15.10
2018-11-01T11:01:51.657Z,15.10
2018-11-01T11:04:20.146Z,15.20
2018-11-01T11:06:48.959Z,15.20
2018-11-01T11:09:17.814Z,15.10
2018-11-01T11:11:46.968Z,15.20
2018-11-01T11:14:15.491Z,15.10
2018-11-01T11:16:44.818Z,15.10
2018-11-01T11:19:13.662Z,15.20
2018-11-01T11:21:42.522Z,15.20
2018-11-01T11:24:12.189Z,15.10
2018-11-01T11:26:40.701Z,15.10
2018-11-01T11:29:09.239Z,15.00
2018-11-01T11:31:37.732Z,15.00
2018-11-01T11:34:06.648Z,15.10
2018-11-01T11:36:35.131Z,15.10
2018-11-01T11:39:04.580Z,15.00
2018-11-01T11:41:33.253Z,14.90
2018-11-01T11:44:01.787Z,14.90
2018-11-01T11:46:30.650Z,14.90
2018-11-01T11:48:59.174Z,14.90
2018-11-01T11:51:27.756Z,14.90
2018-11-01T11:53:56.392Z,14.80
2018-11-01T11:56:25.570Z,14.80
2018-11-01T11:58:54.181Z,14.80
2018-11-01T12:01:23.265Z,14.80
2018-11-01T12:03:52.172Z,14.80
2018-11-01T12:06:20.886Z,14.70
2018-11-01T12:08:49.749Z,14.70
2018-11-01T12:11:18.557Z,14.60
2018-11-01T12:13:47.414Z,14.60
2018-11-01T12:16:15.940Z,14.60
2018-11-01T12:18:45.160Z,14.60
2018-11-01T12:21:13.641Z,14.60
2018-11-01T12:23:42.490Z,14.60
2018-11-01T12:26:11.193Z,14.60
2018-11-01T12:28:39.894Z,14.50
2018-11-01T12:31:08.484Z,14.50
2018-11-01T12:33:37.013Z,14.50
2018-11-01T12:36:05.739Z,14.50
2018-11-01T12:38:34.430Z,14.50
2018-11-01T12:41:03.173Z,14.50
2018-11-01T12:43:32.397Z,14.40
2018-11-01T12:46:01.583Z,14.40
2018-11-01T12:48:30.075Z,14.40
2018-11-01T12:50:58.602Z,14.40
2018-11-01T12:53:27.545Z,14.40
2018-11-01T12:55:56.097Z,14.40
2018-11-01T12:58:24.949Z,14.40
2018-11-01T13:00:53.817Z,14.40
2018-11-01T13:03:22.388Z,14.40
2018-11-01T13:05:50.896Z,14.40
2018-11-01T13:08:19.400Z,14.40
2018-11-01T13:10:48.091Z,14.40
2018-11-01T13:13:16.762Z,14.30
2018-11-01T13:15:45.659Z,14.30
2018-11-01T13:18:14.258Z,14.30
2018-11-01T13:20:43.423Z,14.30
2018-11-01T13:23:11.949Z,14.30
2018-11-01T13:25:40.461Z,14.30
2018-11-01T13:28:08.973Z,14.30
2018-11-01T13:30:37.489Z,14.30
2018-11-01T13:33:06.337Z,14.30
2018-11-01T13:35:35.305Z,14.30
2018-11-01T13:38:04.774Z,14.30
2018-11-01T13:40:33.905Z,14.30
2018-11-01T13:43:02.364Z,14.30
2018-11-01T13:45:31.284Z,14.30
2018-11-01T13:48:00.580Z,14.30
2018-11-01T13:50:29.477Z,14.30
2018-11-01T13:52:58.020Z,14.30
2018-11-01T13:55:27.418Z,14.30
2018-11-01T13:57:55.928Z,14.30
2018-11-01T14:00:24.473Z,14.30
2018-11-01T14:02:52.993Z,14.30
2018-11-01T14:05:21.833Z,14.30
2018-11-01T14:07:51.341Z,14.30
2018-11-01T14:10:19.897Z,14.30
2018-11-01T14:12:48.777Z,14.30
2018-11-01T14:15:18.010Z,14.30
2018-11-01T14:17:46.379Z,14.30
2018-11-01T14:20:15.217Z,14.20
2018-11-01T14:22:43.760Z,14.30
2018-11-01T14:25:13.161Z,14.20
2018-11-01T14:27:43.132Z,14.20
2018-11-01T14:30:14.837Z,14.20
2018-11-01T14:32:43.747Z,14.20
2018-11-01T14:36:05.606Z,14.20
2018-11-01T14:38:35.278Z,14.20
2018-11-01T14:41:10.772Z,14.30
2018-11-01T14:46:39.626Z,14.20
2018-11-01T14:49:09.060Z,14.10
2018-11-01T14:51:37.598Z,14.10
2018-11-01T14:55:10.686Z,14.10
2018-11-01T14:57:40.224Z,14.00
2018-11-01T15:00:08.455Z,14.00
2018-11-01T15:02:37.913Z,14.00
2018-11-01T15:05:07.005Z,14.00
2018-11-01T15:07:35.560Z,14.00
2018-11-01T15:10:04.453Z,14.00
2018-11-01T15:12:33.380Z,14.00
2018-11-01T15:15:01.936Z,13.90
2018-11-01T15:17:31.200Z,13.90
2018-11-01T15:20:00.733Z,13.90
2018-11-01T15:22:29.761Z,13.90
2018-11-01T15:24:58.637Z,13.90
2018-11-01T15:27:27.879Z,13.90
2018-11-01T15:29:56.771Z,13.90
2018-11-01T15:32:27.364Z,13.90
2018-11-01T15:34:56.446Z,13.90
2018-11-01T15:37:26.734Z,13.90
2018-11-01T15:39:55.996Z,13.90
2018-11-01T15:42:25.483Z,13.90
2018-11-01T15:44:54.366Z,13.90
2018-11-01T15:47:23.088Z,13.90
2018-11-01T15:49:51.646Z,13.90
2018-11-01T15:52:20.422Z,13.90
2018-11-01T15:54:48.957Z,13.90
2018-11-01T15:57:17.463Z,13.90
2018-11-01T15:59:46.228Z,13.90
2018-11-01T16:02:14.952Z,13.90
2018-11-01T16:04:43.620Z,13.90
2018-11-01T16:07:12.696Z,13.90
2018-11-01T16:09:41.242Z,13.90
2018-11-01T16:12:10.091Z,13.90
2018-11-01T16:14:38.600Z,13.90
2018-11-01T16:17:07.118Z,13.90
2018-11-01T16:19:36.406Z,13.90
2018-11-01T16:22:05.441Z,13.90
2018-11-01T16:24:33.985Z,13.90
2018-11-01T16:27:02.888Z,13.90
2018-11-01T16:29:31.538Z,13.90
2018-11-01T16:32:00.429Z,13.90
2018-11-01T16:34:29.435Z,13.90
2018-11-01T16:36:59.149Z,13.90
2018-11-01T16:39:27.886Z,13.90
2018-11-01T16:41:56.445Z,13.90
2018-11-01T16:44:25.212Z,13.90
2018-11-01T16:46:53.865Z,13.90
2018-11-01T16:49:22.402Z,13.90
2018-11-01T16:51:51.205Z,13.90
2018-11-01T16:54:19.743Z,13.90
2018-11-01T16:56:49.275Z,13.80
2018-11-01T16:59:17.792Z,13.80
2018-11-01T17:01:46.695Z,13.80
2018-11-01T17:04:15.246Z,13.80
2018-11-01T17:06:43.846Z,13.80
2018-11-01T17:09:12.411Z,13.90
2018-11-01T17:11:41.301Z,13.90
2018-11-01T17:14:10.203Z,13.90
2018-11-01T17:16:39.357Z,13.90
2018-11-01T17:19:19.399Z,13.90
2018-11-01T17:21:49.082Z,13.90
2018-11-01T17:24:17.776Z,14.00
2018-11-01T17:26:46.385Z,14.00
2018-11-01T17:29:16.991Z,14.00
2018-11-01T17:31:45.886Z,14.00
2018-11-01T17:34:15.077Z,14.00
2018-11-01T17:36:43.737Z,14.00
2018-11-01T17:58:29.475Z,14.00
2018-11-01T18:00:58.791Z,14.00
2018-11-01T18:03:28.035Z,14.10
2018-11-01T18:05:56.739Z,14.10
2018-11-01T18:08:27.005Z,14.10
2018-11-01T18:10:56.130Z,14.00
2018-11-01T18:13:25.232Z,14.00
2018-11-01T18:15:54.539Z,14.00
2018-11-01T18:18:23.765Z,14.00
2018-11-01T18:20:53.151Z,14.00
2018-11-01T18:23:23.254Z,14.00
2018-11-01T18:25:52.780Z,14.10
2018-11-01T18:28:21.598Z,14.10
2018-11-01T18:30:52.529Z,14.10
2018-11-01T18:33:22.035Z,14.00
2018-11-01T18:35:51.031Z,14.00
2018-11-01T18:38:21.122Z,14.00
2018-11-01T18:42:15.514Z,14.00
2018-11-01T18:44:45.265Z,14.00
2018-11-01T18:47:13.843Z,14.00
2018-11-01T18:49:44.279Z,14.00
2018-11-01T18:52:13.571Z,14.00
2018-11-01T18:54:44.491Z,13.90
2018-11-01T18:57:13.297Z,13.90
2018-11-01T18:59:41.900Z,13.90
2018-11-01T19:02:10.537Z,13.90
2018-11-01T19:04:39.093Z,13.90
2018-11-01T19:07:08.339Z,13.90
2018-11-01T19:09:37.505Z,13.80
2018-11-01T19:12:07.365Z,13.80
2018-11-01T19:14:38.102Z,13.80
2018-11-01T19:17:07.332Z,13.80
2018-11-01T19:19:36.714Z,13.70
2018-11-01T19:22:06.621Z,13.70
2018-11-01T19:24:35.455Z,13.70
2018-11-01T19:27:04.124Z,13.70
2018-11-01T19:29:33.474Z,13.70
2018-11-01T19:32:02.476Z,13.70
2018-11-01T19:34:31.623Z,13.60
2018-11-01T19:37:01.482Z,13.60
2018-11-01T19:39:30.004Z,13.50
2018-11-01T19:41:58.842Z,13.50
2018-11-01T19:44:27.813Z,13.50
2018-11-01T19:46:59.587Z,13.50
2018-11-01T19:49:29.125Z,13.50
2018-11-01T19:51:59.751Z,13.40
2018-11-01T19:54:28.565Z,13.40
2018-11-01T19:56:57.860Z,13.40
2018-11-01T19:59:27.748Z,13.40
2018-11-01T20:01:56.994Z,13.40
2018-11-01T20:04:25.859Z,13.30
2018-11-01T20:06:54.923Z,13.30
2018-11-01T20:09:23.807Z,13.20
2018-11-01T20:11:52.655Z,13.20
2018-11-01T20:14:21.389Z,13.20
2018-11-01T20:16:50.025Z,13.10
2018-11-01T20:19:19.765Z,13.10
2018-11-01T20:21:49.901Z,12.90
2018-11-01T20:24:20.416Z,12.80
2018-11-01T20:26:53.594Z,12.80
2018-11-01T20:29:24.355Z,12.70
2018-11-01T20:31:58.847Z,12.70
2018-11-01T20:34:28.703Z,12.60
2018-11-01T20:37:17.834Z,12.60
2018-11-01T20:39:46.719Z,12.50
2018-11-01T20:42:20.316Z,12.40
2018-11-01T20:44:50.190Z,12.30
2018-11-01T20:47:20.251Z,12.20
2018-11-01T20:49:50.106Z,12.20
2018-11-01T20:52:20.151Z,12.20
2018-11-01T20:54:49.805Z,12.10
2018-11-01T20:57:19.182Z,12.00
2018-11-01T20:59:47.862Z,11.90
2018-11-01T21:02:16.806Z,11.80
2018-11-01T21:04:47.252Z,11.80
2018-11-01T21:07:17.296Z,11.60
2018-11-01T21:09:46.126Z,11.60
2018-11-01T21:12:17.153Z,11.60
2018-11-01T21:14:45.694Z,12.00
2018-11-01T21:17:14.218Z,12.90
2018-11-01T21:19:42.962Z,13.50
2018-11-01T21:22:13.527Z,13.70
2018-11-01T21:24:43.405Z,13.70
2018-11-01T21:27:12.862Z,13.80
2018-11-01T21:29:41.440Z,13.80
2018-11-01T21:32:10.232Z,14.10
2018-11-01T21:34:39.590Z,14.00
2018-11-01T21:37:08.254Z,14.00
2018-11-01T21:39:37.969Z,14.10
2018-11-01T21:42:08.802Z,14.50
2018-11-01T21:44:37.350Z,14.70
2018-11-01T21:47:06.837Z,14.60
2018-11-01T21:49:35.651Z,14.60
2018-11-01T21:52:05.342Z,14.60
2018-11-01T21:54:35.311Z,13.40
2018-11-01T21:57:04.587Z,12.90
2018-11-01T21:59:33.405Z,12.20
2018-11-01T22:02:02.839Z,11.80
2018-11-01T22:04:31.457Z,11.60
2018-11-01T22:07:00.676Z,11.40
2018-11-01T22:09:30.621Z,11.20
2018-11-01T22:12:00.072Z,11.10
2018-11-01T22:14:29.715Z,10.90
2018-11-01T22:16:59.027Z,10.90
2018-11-01T22:19:28.561Z,10.80
2018-11-01T22:21:57.586Z,10.70
2018-11-01T22:24:27.279Z,10.60
2018-11-01T22:26:58.774Z,10.50
2018-11-01T22:32:10.439Z,10.40
2018-11-01T22:34:40.101Z,10.20
2018-11-01T22:37:09.732Z,10.30
2018-11-01T22:39:38.872Z,10.10
2018-11-01T22:42:07.643Z,10.00
2018-11-01T22:44:36.253Z,10.00
2018-11-01T22:47:05.899Z,10.00
2018-11-01T22:49:34.456Z,9.90
2018-11-01T22:52:04.434Z,9.80
2018-11-01T22:54:39.264Z,9.70
2018-11-01T22:57:11.205Z,9.80
2018-11-01T22:59:47.497Z,9.70
2018-11-01T23:02:17.076Z,9.60
2018-11-01T23:04:46.048Z,9.60
2018-11-01T23:07:14.640Z,9.50
2018-11-01T23:09:43.538Z,9.60
2018-11-01T23:12:12.479Z,9.60
2018-11-01T23:14:41.624Z,9.60
2018-11-01T23:17:11.618Z,9.50
2018-11-01T23:19:59.540Z,9.50
2018-11-01T23:22:39.155Z,9.40
2018-11-01T23:25:07.923Z,9.40
2018-11-01T23:27:37.002Z,9.40
2018-11-01T23:30:06.215Z,9.40
2018-11-01T23:32:35.026Z,9.40
2018-11-01T23:35:03.949Z,9.40
2018-11-01T23:37:37.968Z,9.30
2018-11-01T23:40:12.370Z,9.30
2018-11-01T23:42:53.334Z,9.30
2018-11-01T23:45:29.406Z,9.30
2018-11-01T23:47:59.765Z,9.30
2018-11-01T23:50:36.634Z,9.20
2018-11-01T23:53:10.850Z,9.20
2018-11-01T23:55:39.628Z,9.20
2018-11-01T23:58:08.947Z,9.20
